Wetterdaten: Woche 06.05.13 - 12.05.13 (KW19)
Datum Zeit Temperatur Luftfeuchte Luftdruck Niederschlag Windrichtung Sonnenschein Solar Wind
06.05.2013 00:00 11,1 C 79 % 1017,5 hPa 0,0 l/m NO 0,00 h 0 W/m 5,3 km/h (1 Bft)
06.05.2013 01:00 10,4 C 82 % 1017,1 hPa 0,0 l/m NO 0,00 h 0 W/m 4,5 km/h (1 Bft)
06.05.2013 02:00 9,6 C 86 % 1016,4 hPa 0,0 l/m N 0,00 h 0 W/m 4,4 km/h (1 Bft)
06.05.2013 03:00 9,0 C 88 % 1016,0 hPa 0,0 l/m NO 0,00 h 0 W/m 3,5 km/h (1 Bft)
06.05.2013 04:00 8,6 C 90 % 1015,8 hPa 0,0 l/m NO 0,00 h 0 W/m 5,3 km/h (1 Bft)
06.05.2013 05:00 8,3 C 92 % 1015,5 hPa 0,0 l/m N 0,00 h 0 W/m 8,9 km/h (2 Bft)
06.05.2013 06:00 8,2 C 93 % 1015,6 hPa 0,0 l/m N 0,00 h 24 W/m 8,0 km/h (2 Bft)
06.05.2013 07:00 9,4 C 91 % 1015,7 hPa 0,0 l/m N-NO 0,42 h 134 W/m 10,8 km/h (2 Bft)
06.05.2013 08:00 11,4 C 85 % 1015,5 hPa 0,0 l/m O-NO 0,92 h 292 W/m 11,4 km/h (2 Bft)
06.05.2013 09:00 12,6 C 83 % 1015,2 hPa 0,0 l/m O-NO 0,08 h 214 W/m 11,7 km/h (2 Bft)
06.05.2013 10:00 13,1 C 81 % 1015,3 hPa 0,0 l/m O-SO 0,00 h 217 W/m 13,3 km/h (3 Bft)
06.05.2013 11:00 13,8 C 79 % 1015,2 hPa 0,0 l/m NO 0,00 h 238 W/m 13,3 km/h (3 Bft)
06.05.2013 12:00 15,2 C 74 % 1014,8 hPa 0,0 l/m O-NO 0,25 h 536 W/m 11,7 km/h (2 Bft)
06.05.2013 13:00 16,4 C 70 % 1014,2 hPa 0,0 l/m O-NO 0,33 h 446 W/m 11,8 km/h (2 Bft)
06.05.2013 14:00 18,2 C 65 % 1013,8 hPa 0,0 l/m NO 0,75 h 697 W/m 11,7 km/h (2 Bft)
06.05.2013 15:00 18,5 C 63 % 1013,4 hPa 0,0 l/m O 0,42 h 454 W/m 10,8 km/h (2 Bft)
06.05.2013 16:00 20,0 C 58 % 1012,9 hPa 0,0 l/m O-SO 1,00 h 628 W/m 12,8 km/h (3 Bft)
06.05.2013 17:00 19,9 C 56 % 1012,4 hPa 0,0 l/m O-SO 0,67 h 344 W/m 14,6 km/h (3 Bft)
06.05.2013 18:00 19,7 C 58 % 1012,3 hPa 0,0 l/m O-SO 0,75 h 284 W/m 13,2 km/h (3 Bft)
06.05.2013 19:00 17,6 C 69 % 1012,4 hPa 0,0 l/m SO 0,00 h 54 W/m 12,7 km/h (3 Bft)
06.05.2013 20:00 15,4 C 78 % 1013,1 hPa 0,0 l/m SW 0,00 h 13 W/m 13,3 km/h (3 Bft)
06.05.2013 21:00 14,1 C 85 % 1013,9 hPa 0,2 l/m W-NW 0,00 h 0 W/m 13,8 km/h (3 Bft)
06.05.2013 22:00 12,7 C 94 % 1014,2 hPa 3,4 l/m W-NW 0,00 h 0 W/m 9,7 km/h (2 Bft)
06.05.2013 23:00 12,2 C 96 % 1014,0 hPa 1,6 l/m NW 0,00 h 0 W/m 4,9 km/h (1 Bft)
07.05.2013 00:00 12,0 C 97 % 1014,0 hPa 0,0 l/m NW 0,00 h 0 W/m 3,2 km/h (1 Bft)
07.05.2013 01:00 11,8 C 97 % 1014,0 hPa 0,0 l/m NW 0,00 h 0 W/m 3,6 km/h (1 Bft)
07.05.2013 02:00 11,7 C 97 % 1013,7 hPa 0,0 l/m NW 0,00 h 0 W/m 2,9 km/h (1 Bft)
07.05.2013 03:00 11,6 C 98 % 1013,4 hPa 0,0 l/m SW 0,00 h 0 W/m 6,6 km/h (2 Bft)
07.05.2013 04:00 11,4 C 97 % 1013,3 hPa 0,0 l/m SW 0,00 h 0 W/m 6,7 km/h (2 Bft)
07.05.2013 05:00 10,9 C 97 % 1013,2 hPa 0,0 l/m SW 0,00 h 0 W/m 4,5 km/h (1 Bft)
07.05.2013 06:00 10,9 C 97 % 1013,3 hPa 0,0 l/m SW 0,00 h 13 W/m 7,9 km/h (2 Bft)
07.05.2013 07:00 11,3 C 97 % 1013,6 hPa 0,0 l/m SW 0,00 h 50 W/m 7,6 km/h (2 Bft)
07.05.2013 08:00 12,1 C 95 % 1013,6 hPa 0,0 l/m SW 0,00 h 76 W/m 7,6 km/h (2 Bft)
07.05.2013 09:00 12,7 C 94 % 1013,5 hPa 0,0 l/m W 0,00 h 102 W/m 7,5 km/h (2 Bft)
07.05.2013 10:00 13,5 C 91 % 1013,4 hPa 0,0 l/m W-SW 0,00 h 181 W/m 9,7 km/h (2 Bft)
07.05.2013 11:00 14,2 C 87 % 1013,4 hPa 0,0 l/m W-SW 0,08 h 327 W/m 12,6 km/h (3 Bft)
07.05.2013 12:00 15,8 C 79 % 1013,3 hPa 0,0 l/m W 0,25 h 403 W/m 10,2 km/h (2 Bft)
07.05.2013 13:00 16,8 C 70 % 1013,2 hPa 0,0 l/m W 0,25 h 420 W/m 11,4 km/h (2 Bft)
07.05.2013 14:00 18,2 C 63 % 1012,8 hPa 0,0 l/m W-SW 0,67 h 730 W/m 11,9 km/h (2 Bft)
07.05.2013 15:00 19,0 C 57 % 1012,3 hPa 0,0 l/m SW 0,75 h 671 W/m 12,4 km/h (3 Bft)
07.05.2013 16:00 19,5 C 52 % 1011,9 hPa 0,0 l/m W-SW 0,75 h 574 W/m 11,3 km/h (2 Bft)
07.05.2013 17:00 19,5 C 51 % 1011,6 hPa 0,0 l/m SW 0,67 h 403 W/m 12,2 km/h (2 Bft)
07.05.2013 18:00 18,7 C 54 % 1011,5 hPa 0,0 l/m SW 0,67 h 278 W/m 9,5 km/h (2 Bft)
07.05.2013 19:00 16,9 C 63 % 1011,8 hPa 0,0 l/m SW 0,08 h 41 W/m 14,0 km/h (3 Bft)
07.05.2013 20:00 15,1 C 69 % 1012,3 hPa 0,0 l/m W-SW 0,00 h 11 W/m 13,7 km/h (3 Bft)
07.05.2013 21:00 14,4 C 71 % 1013,0 hPa 0,0 l/m W-SW 0,00 h 0 W/m 12,4 km/h (3 Bft)
07.05.2013 22:00 13,2 C 77 % 1013,2 hPa 0,0 l/m N 0,00 h 0 W/m 2,7 km/h (1 Bft)
07.05.2013 23:00 11,5 C 85 % 1013,1 hPa 0,0 l/m N 0,00 h 0 W/m 1,9 km/h (1 Bft)
08.05.2013 00:00 10,0 C 91 % 1013,3 hPa 0,0 l/m N 0,00 h 0 W/m 0,1 km/h (0 Bft)
08.05.2013 01:00 9,1 C 94 % 1013,4 hPa 0,0 l/m N 0,00 h 0 W/m 0,0 km/h (0 Bft)
08.05.2013 02:00 8,8 C 94 % 1013,0 hPa 0,0 l/m N 0,00 h 0 W/m 0,3 km/h (0 Bft)
08.05.2013 03:00 8,0 C 96 % 1012,8 hPa 0,0 l/m N 0,00 h 0 W/m 0,5 km/h (0 Bft)
08.05.2013 04:00 7,3 C 96 % 1012,9 hPa 0,0 l/m N 0,00 h 0 W/m 0,0 km/h (0 Bft)
08.05.2013 05:00 6,8 C 97 % 1012,9 hPa 0,0 l/m N 0,00 h 0 W/m 0,0 km/h (0 Bft)
08.05.2013 06:00 6,8 C 97 % 1013,2 hPa 0,0 l/m N 0,00 h 26 W/m 0,0 km/h (0 Bft)
08.05.2013 07:00 8,8 C 95 % 1013,5 hPa 0,0 l/m N 0,58 h 150 W/m 0,3 km/h (0 Bft)
08.05.2013 08:00 12,3 C 85 % 1013,6 hPa 0,0 l/m S-SW 1,00 h 325 W/m 4,3 km/h (1 Bft)
08.05.2013 09:00 15,2 C 74 % 1013,5 hPa 0,0 l/m S-SW 1,00 h 495 W/m 7,9 km/h (2 Bft)
08.05.2013 10:00 17,1 C 65 % 1013,1 hPa 0,0 l/m SO 0,92 h 625 W/m 7,8 km/h (2 Bft)
08.05.2013 11:00 18,4 C 56 % 1012,4 hPa 0,0 l/m SW 1,00 h 780 W/m 10,6 km/h (2 Bft)
08.05.2013 12:00 19,9 C 46 % 1012,3 hPa 0,0 l/m S-SW 1,00 h 862 W/m 11,8 km/h (2 Bft)
08.05.2013 13:00 21,0 C 41 % 1011,9 hPa 0,0 l/m SW 1,00 h 884 W/m 13,0 km/h (3 Bft)
08.05.2013 14:00 21,8 C 40 % 1011,5 hPa 0,0 l/m W-SW 1,00 h 866 W/m 12,3 km/h (3 Bft)
08.05.2013 15:00 22,1 C 40 % 1011,2 hPa 0,0 l/m W-NW 1,00 h 780 W/m 11,0 km/h (2 Bft)
08.05.2013 16:00 22,6 C 36 % 1010,6 hPa 0,0 l/m W-SW 1,00 h 676 W/m 12,2 km/h (2 Bft)
08.05.2013 17:00 22,6 C 34 % 1010,2 hPa 0,0 l/m SW 1,00 h 528 W/m 11,1 km/h (2 Bft)
08.05.2013 18:00 22,1 C 34 % 1010,0 hPa 0,0 l/m W 1,00 h 355 W/m 9,0 km/h (2 Bft)
08.05.2013 19:00 20,6 C 39 % 1010,1 hPa 0,0 l/m W-SW 0,58 h 122 W/m 6,5 km/h (2 Bft)
08.05.2013 20:00 17,4 C 52 % 1010,6 hPa 0,0 l/m N 0,00 h 12 W/m 1,7 km/h (1 Bft)
08.05.2013 21:00 15,9 C 62 % 1011,0 hPa 0,0 l/m N 0,00 h 0 W/m 0,0 km/h (0 Bft)
08.05.2013 22:00 15,1 C 72 % 1011,5 hPa 0,0 l/m N 0,00 h 0 W/m 0,0 km/h (0 Bft)
08.05.2013 23:00 14,8 C 74 % 1011,8 hPa 0,0 l/m N 0,00 h 0 W/m 0,5 km/h (0 Bft)
09.05.2013 00:00 14,1 C 76 % 1012,1 hPa 0,0 l/m N 0,00 h 0 W/m 0,9 km/h (0 Bft)
09.05.2013 01:00 14,0 C 78 % 1012,6 hPa 0,0 l/m W 0,00 h 0 W/m 1,5 km/h (1 Bft)
09.05.2013 02:00 14,9 C 73 % 1012,7 hPa 0,4 l/m W 0,00 h 0 W/m 14,9 km/h (3 Bft)
09.05.2013 03:00 13,1 C 89 % 1012,5 hPa 0,4 l/m W 0,00 h 0 W/m 2,9 km/h (1 Bft)
09.05.2013 04:00 12,2 C 94 % 1012,4 hPa 0,0 l/m W 0,00 h 0 W/m 3,6 km/h (1 Bft)
09.05.2013 05:00 12,4 C 92 % 1013,0 hPa 0,2 l/m W 0,00 h 0 W/m 6,5 km/h (2 Bft)
09.05.2013 06:00 12,6 C 93 % 1013,1 hPa 0,2 l/m W-SW 0,00 h 12 W/m 2,1 km/h (1 Bft)
09.05.2013 07:00 12,7 C 95 % 1013,1 hPa 0,2 l/m W-SW 0,00 h 38 W/m 4,0 km/h (1 Bft)
09.05.2013 08:00 13,5 C 94 % 1013,4 hPa 0,0 l/m SW 0,00 h 106 W/m 9,1 km/h (2 Bft)
09.05.2013 09:00 14,8 C 89 % 1013,8 hPa 0,0 l/m W 0,08 h 216 W/m 11,9 km/h (2 Bft)
09.05.2013 10:00 15,8 C 86 % 1013,6 hPa 0,0 l/m W-SW 0,00 h 253 W/m 10,5 km/h (2 Bft)
09.05.2013 11:00 16,6 C 80 % 1013,4 hPa 0,0 l/m W 0,33 h 368 W/m 11,6 km/h (2 Bft)
09.05.2013 12:00 16,9 C 77 % 1013,1 hPa 0,0 l/m W 0,08 h 349 W/m 7,4 km/h (2 Bft)
09.05.2013 13:00 18,6 C 69 % 1012,6 hPa 0,0 l/m W-SW 0,67 h 503 W/m 8,8 km/h (2 Bft)
09.05.2013 14:00 19,0 C 65 % 1012,3 hPa 0,0 l/m W-NW 0,17 h 388 W/m 8,3 km/h (2 Bft)
09.05.2013 15:00 19,6 C 64 % 1011,6 hPa 0,0 l/m W-NW 0,25 h 396 W/m 8,4 km/h (2 Bft)
09.05.2013 16:00 19,1 C 64 % 1011,5 hPa 0,0 l/m NW 0,00 h 185 W/m 7,2 km/h (2 Bft)
09.05.2013 17:00 19,1 C 64 % 1011,1 hPa 0,0 l/m W-NW 0,08 h 195 W/m 5,9 km/h (2 Bft)
09.05.2013 18:00 18,4 C 69 % 1011,0 hPa 0,0 l/m W 0,00 h 61 W/m 6,4 km/h (2 Bft)
09.05.2013 19:00 16,2 C 82 % 1011,0 hPa 0,2 l/m W 0,00 h 14 W/m 7,9 km/h (2 Bft)
09.05.2013 20:00 14,6 C 92 % 1011,4 hPa 1,6 l/m W-SW 0,00 h 0 W/m 9,4 km/h (2 Bft)
09.05.2013 21:00 14,1 C 96 % 1011,8 hPa 1,0 l/m S-SW 0,00 h 0 W/m 4,9 km/h (1 Bft)
09.05.2013 22:00 13,8 C 97 % 1011,9 hPa 0,8 l/m S-SW 0,00 h 0 W/m 9,1 km/h (2 Bft)
09.05.2013 23:00 13,5 C 98 % 1012,0 hPa 0,2 l/m SW 0,00 h 0 W/m 6,0 km/h (2 Bft)
10.05.2013 00:00 13,2 C 97 % 1011,7 hPa 0,2 l/m SW 0,00 h 0 W/m 4,1 km/h (1 Bft)
10.05.2013 01:00 13,2 C 98 % 1011,1 hPa 0,0 l/m SW 0,00 h 0 W/m 2,8 km/h (1 Bft)
10.05.2013 02:00 13,1 C 99 % 1010,9 hPa 0,8 l/m SW 0,00 h 0 W/m 2,7 km/h (1 Bft)
10.05.2013 03:00 12,9 C 99 % 1011,0 hPa 0,6 l/m N 0,00 h 0 W/m 1,7 km/h (1 Bft)
10.05.2013 04:00 12,3 C 98 % 1011,0 hPa 1,0 l/m W-NW 0,00 h 0 W/m 7,6 km/h (2 Bft)
10.05.2013 05:00 11,8 C 97 % 1011,2 hPa 1,4 l/m NW 0,00 h 0 W/m 10,7 km/h (2 Bft)
10.05.2013 06:00 11,0 C 97 % 1011,7 hPa 2,0 l/m NW 0,00 h 6 W/m 6,0 km/h (2 Bft)
10.05.2013 07:00 10,9 C 98 % 1012,2 hPa 2,8 l/m N 0,00 h 17 W/m 1,2 km/h (1 Bft)
10.05.2013 08:00 11,3 C 98 % 1012,6 hPa 1,8 l/m N 0,00 h 45 W/m 0,3 km/h (0 Bft)
10.05.2013 09:00 11,5 C 98 % 1013,0 hPa 2,6 l/m NW 0,00 h 52 W/m 3,2 km/h (1 Bft)
10.05.2013 10:00 11,5 C 97 % 1013,4 hPa 0,6 l/m NW 0,00 h 160 W/m 8,3 km/h (2 Bft)
10.05.2013 11:00 12,2 C 95 % 1013,5 hPa 0,4 l/m N-NW 0,00 h 163 W/m 6,0 km/h (2 Bft)
10.05.2013 12:00 12,4 C 93 % 1013,8 hPa 0,2 l/m NW 0,00 h 177 W/m 7,8 km/h (2 Bft)
10.05.2013 13:00 12,0 C 93 % 1014,1 hPa 0,6 l/m N 0,00 h 145 W/m 10,5 km/h (2 Bft)
10.05.2013 14:00 11,4 C 95 % 1014,5 hPa 0,8 l/m N 0,00 h 148 W/m 10,1 km/h (2 Bft)
10.05.2013 15:00 11,5 C 95 % 1014,6 hPa 0,4 l/m N-NW 0,00 h 153 W/m 9,8 km/h (2 Bft)
10.05.2013 16:00 12,0 C 91 % 1014,7 hPa 0,0 l/m NW 0,00 h 146 W/m 7,9 km/h (2 Bft)
10.05.2013 17:00 12,7 C 85 % 1014,7 hPa 0,0 l/m NW 0,00 h 182 W/m 6,9 km/h (2 Bft)
10.05.2013 18:00 13,6 C 77 % 1014,7 hPa 0,0 l/m NW 0,50 h 289 W/m 9,1 km/h (2 Bft)
10.05.2013 19:00 13,2 C 81 % 1015,0 hPa 0,0 l/m SW 0,92 h 167 W/m 9,3 km/h (2 Bft)
10.05.2013 20:00 11,6 C 94 % 1015,5 hPa 0,0 l/m S-SW 0,42 h 26 W/m 8,2 km/h (2 Bft)
10.05.2013 21:00 10,1 C 96 % 1016,0 hPa 0,0 l/m N 0,00 h 0 W/m 0,7 km/h (0 Bft)
10.05.2013 22:00 8,9 C 97 % 1016,5 hPa 0,0 l/m N 0,00 h 0 W/m 0,5 km/h (0 Bft)
10.05.2013 23:00 8,2 C 98 % 1016,6 hPa 0,0 l/m N 0,00 h 0 W/m 1,3 km/h (1 Bft)
11.05.2013 00:00 8,1 C 98 % 1016,6 hPa 0,0 l/m N 0,00 h 0 W/m 0,9 km/h (0 Bft)
11.05.2013 01:00 8,3 C 97 % 1016,3 hPa 0,0 l/m N 0,00 h 0 W/m 0,9 km/h (0 Bft)
11.05.2013 02:00 8,4 C 97 % 1016,0 hPa 0,0 l/m S-SW 0,00 h 0 W/m 1,2 km/h (1 Bft)
11.05.2013 03:00 8,3 C 96 % 1015,6 hPa 0,0 l/m N 0,00 h 0 W/m 2,8 km/h (1 Bft)
11.05.2013 04:00 8,2 C 95 % 1015,3 hPa 0,0 l/m N 0,00 h 0 W/m 1,2 km/h (1 Bft)
11.05.2013 05:00 8,2 C 95 % 1015,2 hPa 0,0 l/m N 0,00 h 0 W/m 0,0 km/h (0 Bft)
11.05.2013 06:00 8,1 C 97 % 1015,3 hPa 0,0 l/m N 0,00 h 8 W/m 0,7 km/h (0 Bft)
11.05.2013 07:00 8,5 C 95 % 1015,3 hPa 0,0 l/m N 0,00 h 44 W/m 0,9 km/h (0 Bft)
11.05.2013 08:00 9,2 C 93 % 1015,4 hPa 0,0 l/m W-SW 0,00 h 78 W/m 2,9 km/h (1 Bft)
11.05.2013 09:00 9,9 C 89 % 1015,5 hPa 0,0 l/m N-NW 0,00 h 138 W/m 7,9 km/h (2 Bft)
11.05.2013 10:00 11,3 C 83 % 1015,3 hPa 0,0 l/m N-NW 0,42 h 364 W/m 7,0 km/h (2 Bft)
11.05.2013 11:00 11,9 C 78 % 1015,0 hPa 0,0 l/m N-NW 0,08 h 244 W/m 6,7 km/h (2 Bft)
11.05.2013 12:00 12,5 C 73 % 1014,7 hPa 0,0 l/m SW 0,17 h 234 W/m 10,9 km/h (2 Bft)
11.05.2013 13:00 13,0 C 75 % 1014,4 hPa 0,0 l/m W-SW 0,17 h 332 W/m 9,8 km/h (2 Bft)
11.05.2013 14:00 11,1 C 80 % 1014,5 hPa 0,0 l/m NW 0,00 h 149 W/m 12,1 km/h (2 Bft)
11.05.2013 15:00 12,3 C 77 % 1014,4 hPa 0,0 l/m W-NW 0,00 h 205 W/m 10,7 km/h (2 Bft)
11.05.2013 16:00 10,0 C 88 % 1014,6 hPa 0,8 l/m W-NW 0,00 h 107 W/m 7,6 km/h (2 Bft)
11.05.2013 17:00 11,2 C 87 % 1014,4 hPa 0,0 l/m W-SW 0,00 h 186 W/m 5,3 km/h (1 Bft)
11.05.2013 18:00 10,7 C 87 % 1014,5 hPa 1,6 l/m SW 0,00 h 44 W/m 14,4 km/h (3 Bft)
11.05.2013 19:00 9,2 C 93 % 1014,6 hPa 0,0 l/m SW 0,00 h 47 W/m 9,3 km/h (2 Bft)
11.05.2013 20:00 9,4 C 95 % 1015,1 hPa 0,8 l/m W-SW 0,00 h 15 W/m 13,6 km/h (3 Bft)
11.05.2013 21:00 8,9 C 95 % 1015,6 hPa 0,2 l/m SW 0,00 h 0 W/m 9,7 km/h (2 Bft)
11.05.2013 22:00 8,4 C 95 % 1016,3 hPa 0,0 l/m W-SW 0,00 h 0 W/m 13,8 km/h (3 Bft)
11.05.2013 23:00 8,0 C 96 % 1016,4 hPa 0,0 l/m SW 0,00 h 0 W/m 6,4 km/h (2 Bft)
12.05.2013 00:00 7,5 C 97 % 1016,4 hPa 0,0 l/m SW 0,00 h 0 W/m 2,4 km/h (1 Bft)
12.05.2013 01:00 7,6 C 98 % 1015,9 hPa 0,0 l/m N 0,00 h 0 W/m 2,9 km/h (1 Bft)
12.05.2013 02:00 7,4 C 98 % 1015,4 hPa 0,2 l/m N 0,00 h 0 W/m 2,1 km/h (1 Bft)
12.05.2013 03:00 7,1 C 98 % 1015,1 hPa 0,0 l/m SW 0,00 h 0 W/m 1,9 km/h (1 Bft)
12.05.2013 04:00 7,2 C 98 % 1014,6 hPa 0,0 l/m SW 0,00 h 0 W/m 2,0 km/h (1 Bft)
12.05.2013 05:00 7,5 C 98 % 1014,1 hPa 0,0 l/m SW 0,00 h 5 W/m 9,9 km/h (2 Bft)
12.05.2013 06:00 7,9 C 97 % 1014,0 hPa 0,0 l/m SW 0,00 h 16 W/m 12,5 km/h (3 Bft)
12.05.2013 07:00 8,4 C 97 % 1014,0 hPa 0,0 l/m SW 0,00 h 64 W/m 14,8 km/h (3 Bft)
12.05.2013 08:00 9,1 C 95 % 1014,1 hPa 0,0 l/m W-SW 0,00 h 99 W/m 13,6 km/h (3 Bft)
12.05.2013 09:00 8,5 C 93 % 1014,2 hPa 0,4 l/m W-SW 0,00 h 105 W/m 18,1 km/h (3 Bft)
12.05.2013 10:00 9,2 C 92 % 1014,3 hPa 0,0 l/m W-SW 0,00 h 150 W/m 16,6 km/h (3 Bft)
12.05.2013 11:00 9,7 C 87 % 1014,4 hPa 0,2 l/m W-SW 0,00 h 162 W/m 19,0 km/h (3 Bft)
12.05.2013 12:00 8,1 C 91 % 1015,0 hPa 1,4 l/m W 0,00 h 113 W/m 14,1 km/h (3 Bft)
12.05.2013 13:00 9,0 C 89 % 1015,6 hPa 0,0 l/m N-NW 0,25 h 437 W/m 15,6 km/h (3 Bft)
12.05.2013 14:00 10,2 C 75 % 1015,9 hPa 0,2 l/m W-NW 0,25 h 421 W/m 22,5 km/h (4 Bft)
12.05.2013 15:00 11,7 C 60 % 1016,0 hPa 0,0 l/m W 0,67 h 654 W/m 22,3 km/h (4 Bft)
12.05.2013 16:00 11,5 C 58 % 1016,3 hPa 0,0 l/m W-NW 0,08 h 211 W/m 19,4 km/h (3 Bft)
12.05.2013 17:00 9,1 C 75 % 1017,1 hPa 0,0 l/m W-NW 0,33 h 228 W/m 21,2 km/h (4 Bft)
12.05.2013 18:00 9,8 C 69 % 1017,0 hPa 0,0 l/m W-NW 0,42 h 215 W/m 18,6 km/h (3 Bft)
12.05.2013 19:00 10,1 C 67 % 1017,5 hPa 0,0 l/m W-NW 0,58 h 137 W/m 11,4 km/h (2 Bft)
12.05.2013 20:00 8,1 C 75 % 1018,4 hPa 0,0 l/m N 0,00 h 14 W/m 4,4 km/h (1 Bft)
12.05.2013 21:00 6,6 C 84 % 1019,1 hPa 0,0 l/m N 0,00 h 0 W/m 1,6 km/h (1 Bft)
12.05.2013 22:00 6,0 C 90 % 1019,8 hPa 0,0 l/m NW 0,00 h 0 W/m 2,0 km/h (1 Bft)
12.05.2013 23:00 5,4 C 92 % 1020,0 hPa 0,0 l/m N 0,00 h 0 W/m 0,8 km/h (0 Bft)
Min-Datum _ 12.05.13 08.05.13 08.05.13 - - - - 06.05.13
_ Min-Zeit 23:45 17:45 17:45 - - - - 04:10
Minimum _ 5,2 C 31 % 1009,9 hPa - - - - 0,0 km/h (0 Bft)
Max-Datum _ 08.05.13 10.05.13 12.05.13 06.05.13 - 06.05.13 06.05.13 12.05.13
_ Max-Zeit 16:25 02:20 22:40 22:15 - 07:35 12:50 14:55
Maximum _ 23,2 C 99 % 1020,1 hPa 3,4 l/m - 0,08 h 1086 W/m 43,5 km/h
W-NW (6 Bft)
Durchschnitt _ 12,6 C 83 % 1013,8 hPa #32,4 l/m SW #28:45 h 253 W/m 7,7 km/h (2 Bft)